Time;durP1;ratioP1;P1;durP2;ratioP2;P2;SDS_P1;SDS_P2;PMS_P1;PMS_P2;Temp;Humidity;BMP_temperature;BMP_pressure;BME280_temperature;BME280_humidity;BME280_pressure;Samples;Min_cycle;Max_cycle;Signal;HPM_P1;HPM_P2
2023/07/03 00:01:14;;;;;;;;;;;14.80;99.90;;;;;;5075971;28;20327;-59
2023/07/03 00:03:40;;;;;;;23.45;9.20;;;14.80;99.90;;;;;;5070855;28;19995;-58
2023/07/03 00:06:05;;;;;;;;;;;14.80;99.90;;;;;;5074569;28;20511;-55
2023/07/03 00:08:31;;;;;;;23.45;6.85;;;14.80;99.90;;;;;;5081530;28;20635;-55
2023/07/03 00:11:01;;;;;;;23.02;8.00;;;14.70;99.90;;;;;;5086311;28;20070;-56
2023/07/03 00:13:27;;;;;;;27.27;8.23;;;14.70;99.90;;;;;;5082635;28;20115;-58
2023/07/03 00:16:02;;;;;;;;;;;14.70;99.90;;;;;;5083326;28;20135;-57
2023/07/03 00:18:29;;;;;;;21.92;6.88;;;14.70;99.90;;;;;;5066547;28;20497;-56
2023/07/03 00:20:55;;;;;;;20.38;7.78;;;14.70;99.90;;;;;;5063017;28;20063;-58
2023/07/03 00:23:22;;;;;;;21.42;7.47;;;14.70;99.90;;;;;;5061992;28;20392;-59
2023/07/03 00:25:48;;;;;;;26.27;8.38;;;14.60;99.90;;;;;;5064786;28;20048;-55
2023/07/03 00:28:14;;;;;;;27.13;6.75;;;14.60;99.90;;;;;;5067576;28;20032;-60
2023/07/03 00:30:40;;;;;;;18.88;5.18;;;14.50;99.90;;;;;;5060516;28;20048;-58
2023/07/03 00:33:05;;;;;;;;;;;14.40;99.90;;;;;;5062302;28;20032;-60
2023/07/03 00:35:31;;;;;;;24.48;6.40;;;14.40;99.90;;;;;;5062378;28;20023;-54
2023/07/03 00:37:56;;;;;;;;;;;14.30;99.90;;;;;;5062301;28;20044;-56
2023/07/03 00:40:22;;;;;;;19.80;5.57;;;14.30;99.90;;;;;;5063101;28;19916;-59
2023/07/03 00:42:50;;;;;;;;;;;14.20;99.90;;;;;;5064561;28;20052;-58
2023/07/03 00:45:16;;;;;;;25.38;4.85;;;14.20;99.90;;;;;;5067456;28;20347;-56
2023/07/03 00:47:42;;;;;;;;;;;14.20;99.90;;;;;;5062944;28;20033;-60
2023/07/03 00:50:08;;;;;;;17.33;4.93;;;14.20;99.90;;;;;;5064052;28;19917;-59
2023/07/03 00:52:34;;;;;;;16.67;4.90;;;14.20;99.90;;;;;;5063222;28;20047;-60
2023/07/03 00:55:00;;;;;;;;;;;14.10;99.90;;;;;;5066036;28;20040;-61
2023/07/03 00:57:26;;;;;;;21.15;5.00;;;14.10;99.90;;;;;;5068080;28;19928;-59
2023/07/03 00:59:51;;;;;;;;;;;14.00;99.90;;;;;;5064822;28;20406;-58
2023/07/03 01:02:43;;;;;;;20.25;4.18;;;14.00;99.90;;;;;;5059378;28;19927;-59
2023/07/03 01:05:18;;;;;;;19.35;3.85;;;13.90;99.90;;;;;;5056421;28;20052;-61
2023/07/03 01:07:44;;;;;;;12.30;4.30;;;13.80;99.90;;;;;;5062449;28;20776;-57
2023/07/03 01:10:20;;;;;;;24.02;4.35;;;13.80;99.90;;;;;;5064479;28;20127;-56
2023/07/03 01:12:50;;;;;;;20.17;4.38;;;13.80;99.90;;;;;;5063374;28;21530;-58
2023/07/03 01:15:25;;;;;;;15.82;4.22;;;13.70;99.90;;;;;;5068319;28;20071;-60
2023/07/03 01:17:53;;;;;;;16.95;4.40;;;13.70;99.90;;;;;;5058638;28;20059;-55
2023/07/03 01:20:21;;;;;;;8.88;2.75;;;13.60;99.90;;;;;;5063448;28;20059;-53
2023/07/03 01:23:00;;;;;;;16.90;3.90;;;13.60;99.90;;;;;;5061836;28;20052;-58
2023/07/03 01:25:26;;;;;;;24.02;5.05;;;13.50;99.90;;;;;;5065690;28;20044;-59
2023/07/03 01:27:54;;;;;;;21.95;4.78;;;13.50;99.90;;;;;;5063575;28;20042;-57
2023/07/03 01:30:21;;;;;;;30.48;5.13;;;13.40;99.90;;;;;;5062932;28;20040;-57
2023/07/03 01:32:51;;;;;;;16.25;4.28;;;13.40;99.90;;;;;;5060503;28;20147;-57
2023/07/03 01:35:19;;;;;;;14.90;3.90;;;13.30;99.90;;;;;;5063333;28;20035;-58
2023/07/03 01:37:47;;;;;;;19.30;4.32;;;13.30;99.90;;;;;;5060958;28;20037;-59
2023/07/03 01:40:15;;;;;;;18.92;5.13;;;13.30;99.90;;;;;;5060351;28;20093;-59
2023/07/03 01:42:42;;;;;;;23.25;4.40;;;13.30;99.90;;;;;;5063187;28;20491;-59
2023/07/03 01:45:09;;;;;;;26.65;4.40;;;13.30;99.90;;;;;;5064753;28;20036;-58
2023/07/03 01:47:36;;;;;;;26.65;5.07;;;13.30;99.90;;;;;;5063654;28;20134;-55
2023/07/03 01:50:04;;;;;;;17.98;4.28;;;13.20;99.90;;;;;;5076112;28;20047;-58
2023/07/03 01:52:38;;;;;;;18.15;4.28;;;13.10;99.90;;;;;;5066018;28;20036;-57
2023/07/03 01:55:41;;;;;;;18.30;4.60;;;13.20;99.90;;;;;;5064952;28;20071;-57
2023/07/03 01:58:25;;;;;;;13.15;4.50;;;13.10;99.90;;;;;;5061393;28;20037;-54
2023/07/03 02:00:59;;;;;;;18.83;4.88;;;13.00;99.90;;;;;;5063758;28;20450;-55
2023/07/03 02:03:40;;;;;;;15.35;4.28;;;13.00;99.90;;;;;;5056029;28;20036;-56
2023/07/03 02:06:17;;;;;;;20.67;4.78;;;12.80;99.90;;;;;;5071291;28;20047;-55
2023/07/03 02:08:42;;;;;;;18.75;3.70;;;12.80;99.90;;;;;;5057049;28;20093;-59
2023/07/03 02:11:19;;;;;;;;;;;12.70;99.90;;;;;;5067572;28;20508;-62
2023/07/03 02:13:44;;;;;;;16.60;4.47;;;12.70;99.90;;;;;;5060495;28;19943;-54
2023/07/03 02:16:10;;;;;;;;;;;12.70;99.90;;;;;;5068582;28;20786;-60
2023/07/03 02:18:36;;;;;;;18.45;3.88;;;12.70;99.90;;;;;;5060686;28;19998;-57
2023/07/03 02:21:05;;;;;;;20.40;5.00;;;12.70;99.90;;;;;;5061219;28;20039;-60
2023/07/03 02:23:31;;;;;;;18.75;4.60;;;12.80;99.90;;;;;;5060024;28;20055;-54
2023/07/03 02:25:57;;;;;;;16.38;3.95;;;12.70;99.90;;;;;;5067972;28;20048;-56
2023/07/03 02:28:23;;;;;;;;;;;12.70;99.90;;;;;;5062551;28;21166;-57
2023/07/03 02:30:48;;;;;;;20.63;3.65;;;12.70;99.90;;;;;;5064337;28;19920;-55
2023/07/03 02:33:14;;;;;;;22.10;4.97;;;12.60;99.90;;;;;;5059129;28;20468;-56
2023/07/03 02:35:41;;;;;;;;;;;12.60;99.90;;;;;;5056477;28;20044;-58
2023/07/03 02:38:08;;;;;;;31.20;4.22;;;12.60;99.90;;;;;;5059032;28;19921;-57
2023/07/03 02:40:35;;;;;;;16.90;3.90;;;12.60;99.90;;;;;;5068365;28;20044;-56
2023/07/03 02:43:02;;;;;;;23.20;4.10;;;12.60;99.90;;;;;;5058679;28;20598;-58
2023/07/03 02:45:29;;;;;;;17.92;4.20;;;12.60;99.90;;;;;;5066247;28;20400;-54
2023/07/03 02:47:54;;;;;;;21.52;4.65;;;12.60;99.90;;;;;;5060232;28;20528;-56
2023/07/03 02:50:20;;;;;;;;;;;12.60;99.90;;;;;;5061763;28;20040;-53
2023/07/03 02:52:45;;;;;;;18.08;3.78;;;12.50;99.90;;;;;;5061198;28;19917;-59
2023/07/03 02:55:12;;;;;;;;;;;12.60;99.90;;;;;;5064394;28;20040;-61
2023/07/03 02:57:37;;;;;;;20.98;4.22;;;12.50;99.90;;;;;;5064211;28;19940;-58
2023/07/03 03:00:05;;;;;;;;;;;12.50;99.90;;;;;;5062966;28;20496;-59
2023/07/03 03:02:31;;;;;;;17.92;3.80;;;12.40;99.90;;;;;;5059131;28;19943;-56
2023/07/03 03:04:57;;;;;;;;;;;12.50;99.90;;;;;;5058217;28;20501;-56
2023/07/03 03:07:22;;;;;;;16.55;4.38;;;12.40;99.90;;;;;;5065155;28;19924;-60
2023/07/03 03:09:48;;;;;;;;;;;12.40;99.90;;;;;;5058235;28;20033;-61
2023/07/03 03:12:13;;;;;;;15.68;4.18;;;12.40;99.90;;;;;;5067205;28;19978;-61
2023/07/03 03:14:39;;;;;;;;;;;12.40;99.90;;;;;;5067398;28;20024;-58
2023/07/03 03:17:04;;;;;;;20.77;4.22;;;12.30;99.90;;;;;;5060504;28;20048;-58
2023/07/03 03:19:31;;;;;;;;;;;12.20;99.90;;;;;;5057836;28;20040;-62
2023/07/03 03:21:57;;;;;;;20.65;4.97;;;12.20;99.90;;;;;;5049125;28;19995;-59
2023/07/03 03:24:23;;;;;;;;;;;12.20;99.90;;;;;;5036889;28;20097;-57
2023/07/03 03:26:48;;;;;;;15.40;4.85;;;12.00;99.90;;;;;;5045158;28;19982;-62
2023/07/03 03:29:14;;;;;;;;;;;12.00;99.90;;;;;;5046631;28;20273;-53
2023/07/03 03:31:39;;;;;;;19.08;4.25;;;12.10;99.90;;;;;;5051397;28;19921;-52
2023/07/03 03:34:05;;;;;;;;;;;12.10;99.90;;;;;;5045393;28;20508;-62
2023/07/03 03:36:33;;;;;;;19.83;3.95;;;12.10;99.90;;;;;;5053618;28;19920;-58
2023/07/03 03:38:58;;;;;;;16.33;4.03;;;12.10;99.90;;;;;;5051636;28;20091;-59
2023/07/03 03:41:24;;;;;;;;;;;12.10;99.90;;;;;;5056239;28;20067;-56
2023/07/03 03:43:50;;;;;;;19.83;4.22;;;12.00;99.90;;;;;;5050133;28;19927;-62
2023/07/03 03:46:15;;;;;;;;;;;12.00;99.90;;;;;;5058984;28;20072;-60
2023/07/03 03:48:41;;;;;;;18.70;3.92;;;12.10;99.90;;;;;;5049296;28;19916;-62
2023/07/03 03:51:06;;;;;;;;;;;12.10;99.90;;;;;;5053867;28;20079;-60
2023/07/03 03:53:32;;;;;;;31.38;4.60;;;12.20;99.90;;;;;;5052873;28;20078;-60
2023/07/03 03:55:57;;;;;;;;;;;12.30;99.90;;;;;;5063615;28;20406;-61
2023/07/03 03:58:23;;;;;;;18.98;4.63;;;12.30;99.90;;;;;;5058353;28;19924;-59
2023/07/03 04:00:50;;;;;;;;;;;12.30;99.90;;;;;;5062686;28;20563;-57
2023/07/03 04:03:16;;;;;;;15.55;4.00;;;12.40;99.90;;;;;;5058723;28;19959;-57
2023/07/03 04:05:42;;;;;;;;;;;12.30;99.90;;;;;;5060103;28;20131;-57
2023/07/03 04:08:08;;;;;;;16.63;4.13;;;12.40;99.90;;;;;;5059122;28;19916;-56
2023/07/03 04:10:35;;;;;;;22.77;4.47;;;12.50;99.90;;;;;;5062494;28;20032;-58
2023/07/03 04:13:00;;;;;;;16.02;3.80;;;12.60;99.90;;;;;;5056245;28;20044;-56
2023/07/03 04:15:29;;;;;;;;;;;12.60;99.90;;;;;;5062961;28;20539;-54
2023/07/03 04:17:55;;;;;;;13.43;3.38;;;12.70;99.90;;;;;;5054669;28;20012;-59
2023/07/03 04:20:20;;;;;;;;;;;12.70;99.90;;;;;;5061161;28;20103;-62
2023/07/03 04:22:46;;;;;;;16.63;3.78;;;12.80;99.90;;;;;;5058576;28;20009;-52
2023/07/03 04:25:11;;;;;;;;;;;12.90;99.90;;;;;;5058443;28;20032;-59
2023/07/03 04:27:37;;;;;;;18.50;4.68;;;12.90;99.90;;;;;;5062556;28;19927;-61
2023/07/03 04:30:04;;;;;;;;;;;12.70;99.90;;;;;;5058460;28;20051;-52
2023/07/03 04:32:30;;;;;;;18.02;4.53;;;12.60;99.90;;;;;;5062469;28;19920;-56
2023/07/03 04:34:57;;;;;;;;;;;12.70;99.90;;;;;;5064987;28;20472;-54
2023/07/03 04:37:26;;;;;;;20.70;4.25;;;13.00;99.90;;;;;;5065189;28;19955;-60
2023/07/03 04:39:53;;;;;;;16.80;3.30;;;13.40;99.90;;;;;;5061626;28;20076;-59
2023/07/03 04:42:20;;;;;;;23.52;4.30;;;13.30;99.90;;;;;;5064798;28;20040;-51
2023/07/03 04:44:48;;;;;;;17.60;3.88;;;13.00;99.90;;;;;;5054943;28;20137;-58
2023/07/03 04:47:18;;;;;;;17.63;4.45;;;12.90;99.90;;;;;;5052105;28;20412;-55
2023/07/03 04:49:45;;;;;;;17.05;4.53;;;12.90;99.90;;;;;;5058202;28;20577;-56
2023/07/03 04:52:11;;;;;;;19.88;4.63;;;12.90;99.90;;;;;;5056590;28;20037;-59
2023/07/03 04:54:37;;;;;;;17.98;3.83;;;12.90;99.90;;;;;;5060923;28;20048;-59
2023/07/03 04:57:03;;;;;;;21.80;4.38;;;13.00;99.90;;;;;;5057495;28;20036;-57
2023/07/03 04:59:29;;;;;;;;;;;13.10;99.90;;;;;;5058680;28;20579;-58
2023/07/03 05:01:55;;;;;;;16.30;3.95;;;13.20;99.90;;;;;;5064198;28;19962;-56
2023/07/03 05:04:20;;;;;;;17.73;3.83;;;13.20;99.90;;;;;;5051799;28;20093;-59
2023/07/03 05:06:47;;;;;;;;;;;13.10;99.90;;;;;;5065375;28;20143;-61
2023/07/03 05:09:12;;;;;;;18.77;5.03;;;13.00;99.90;;;;;;5055349;28;19997;-58
2023/07/03 05:11:38;;;;;;;;;;;13.10;99.90;;;;;;5058322;28;20499;-60
2023/07/03 05:14:03;;;;;;;16.48;4.05;;;13.00;99.90;;;;;;5059558;28;19920;-59
2023/07/03 05:16:29;;;;;;;20.88;4.78;;;12.90;99.90;;;;;;5066561;28;20558;-63
2023/07/03 05:18:55;;;;;;;21.17;4.50;;;12.80;99.90;;;;;;5054889;28;20228;-60
2023/07/03 05:21:20;;;;;;;;;;;12.90;99.90;;;;;;5061371;28;20037;-60
2023/07/03 05:23:46;;;;;;;19.73;4.47;;;12.90;99.90;;;;;;5058481;28;19921;-61
2023/07/03 05:26:12;;;;;;;;;;;12.90;99.90;;;;;;5054160;28;20033;-59
2023/07/03 05:28:38;;;;;;;22.25;4.07;;;13.00;99.90;;;;;;5064733;28;19917;-58
2023/07/03 05:31:03;;;;;;;14.88;3.95;;;13.10;99.90;;;;;;5060849;28;20106;-59
2023/07/03 05:33:29;;;;;;;;;;;13.60;99.90;;;;;;5058283;28;20044;-61
2023/07/03 05:35:59;;;;;;;23.20;4.88;;;14.20;99.90;;;;;;5062252;28;19921;-61
2023/07/03 05:38:25;;;;;;;21.75;4.30;;;14.10;99.90;;;;;;5061195;28;20221;-51
2023/07/03 05:40:50;;;;;;;;;;;13.90;99.90;;;;;;5058025;28;20564;-62
2023/07/03 05:43:17;;;;;;;18.25;4.40;;;13.60;99.90;;;;;;5062089;28;20022;-58
2023/07/03 05:45:43;;;;;;;20.20;4.47;;;13.50;99.90;;;;;;5063981;28;20079;-58
2023/07/03 05:48:08;;;;;;;;;;;13.40;99.90;;;;;;5059335;28;20116;-57
2023/07/03 05:50:34;;;;;;;19.50;3.83;;;13.40;99.90;;;;;;5064151;28;19971;-61
2023/07/03 05:52:59;;;;;;;;;;;13.60;99.90;;;;;;5056908;28;20086;-56
2023/07/03 05:55:25;;;;;;;24.70;4.25;;;13.60;99.90;;;;;;5060511;28;19924;-59
2023/07/03 05:57:50;;;;;;;;;;;13.60;99.90;;;;;;5062175;28;20036;-55
2023/07/03 06:00:17;;;;;;;22.08;4.40;;;13.60;99.90;;;;;;5070702;28;19920;-56
2023/07/03 06:02:44;;;;;;;20.38;4.22;;;13.50;99.90;;;;;;5054289;28;20143;-55
2023/07/03 06:05:12;;;;;;;17.27;4.18;;;13.40;99.90;;;;;;5058552;28;20150;-57
2023/07/03 06:07:39;;;;;;;24.38;4.38;;;13.60;99.90;;;;;;5062477;28;20717;-58
2023/07/03 06:10:06;;;;;;;23.13;4.32;;;13.70;99.90;;;;;;5063692;28;20036;-60
2023/07/03 06:12:32;;;;;;;12.80;4.22;;;13.70;99.90;;;;;;5057012;28;20040;-58
2023/07/03 06:15:01;;;;;;;;;;;13.70;99.90;;;;;;5062377;28;20119;-57
2023/07/03 06:17:28;;;;;;;19.27;3.97;;;13.70;99.90;;;;;;5065761;28;19946;-54
2023/07/03 06:19:54;;;;;;;17.88;4.15;;;13.60;99.90;;;;;;5057009;28;20040;-58
2023/07/03 06:22:20;;;;;;;;;;;13.70;99.90;;;;;;5057442;28;20043;-60
2023/07/03 06:24:45;;;;;;;16.15;3.40;;;13.70;99.90;;;;;;5062840;28;20394;-58
2023/07/03 06:27:12;;;;;;;;;;;13.70;99.90;;;;;;5068799;28;20504;-59
2023/07/03 06:29:37;;;;;;;24.40;4.97;;;13.70;99.90;;;;;;5055367;28;20415;-56
2023/07/03 06:32:03;;;;;;;;;;;13.70;99.90;;;;;;5067381;28;20068;-61
2023/07/03 06:34:29;;;;;;;19.92;4.35;;;13.70;99.90;;;;;;5065298;28;19920;-55
2023/07/03 06:36:54;;;;;;;;;;;13.70;99.90;;;;;;5067519;28;20051;-54
2023/07/03 06:39:20;;;;;;;14.98;3.53;;;13.70;99.90;;;;;;5051293;28;20334;-62
2023/07/03 06:41:45;;;;;;;;;;;13.80;99.90;;;;;;5058126;28;20037;-66
2023/07/03 06:44:13;;;;;;;16.17;4.18;;;13.90;99.90;;;;;;5058988;28;19920;-59
2023/07/03 06:46:39;;;;;;;16.75;4.18;;;13.90;99.90;;;;;;5045892;28;20116;-60
2023/07/03 06:49:05;;;;;;;19.63;4.68;;;13.90;99.90;;;;;;5057566;28;20044;-61
2023/07/03 06:51:31;;;;;;;;;;;14.00;99.90;;;;;;5060330;28;20059;-61
2023/07/03 06:53:57;;;;;;;22.25;4.53;;;14.00;99.90;;;;;;5059212;28;20119;-61
2023/07/03 06:56:23;;;;;;;;;;;14.20;99.90;;;;;;5062495;28;20064;-61
2023/07/03 06:58:49;;;;;;;24.48;4.80;;;14.30;99.90;;;;;;5060875;28;19916;-57
2023/07/03 07:01:18;;;;;;;25.27;5.47;;;14.30;99.90;;;;;;5078359;28;20227;-58
2023/07/03 07:03:44;;;;;;;27.08;5.10;;;14.30;99.90;;;;;;5054525;28;20048;-58
2023/07/03 07:06:11;;;;;;;;;;;14.10;99.90;;;;;;5052528;28;20040;-60
2023/07/03 07:08:37;;;;;;;21.52;4.40;;;14.20;99.90;;;;;;5057699;28;20007;-57
2023/07/03 07:11:06;;;;;;;;;;;14.30;99.90;;;;;;5067909;28;20131;-58
2023/07/03 07:13:32;;;;;;;21.52;3.92;;;14.30;99.90;;;;;;5063390;28;20371;-60
2023/07/03 07:15:57;;;;;;;;;;;14.30;99.90;;;;;;5060799;28;20044;-57
2023/07/03 07:18:23;;;;;;;24.17;4.47;;;14.30;99.90;;;;;;5058629;28;19916;-60
2023/07/03 07:20:48;;;;;;;;;;;14.50;99.90;;;;;;5056892;28;20051;-58
2023/07/03 07:23:14;;;;;;;24.02;5.28;;;14.50;99.90;;;;;;5059396;28;19942;-60
2023/07/03 07:25:39;;;;;;;21.08;4.10;;;14.50;99.90;;;;;;5063016;28;20097;-58
2023/07/03 07:28:05;;;;;;;;;;;14.50;99.90;;;;;;5061143;28;20036;-58
2023/07/03 07:30:31;;;;;;;18.95;5.15;;;14.50;99.90;;;;;;5068008;28;19916;-60
2023/07/03 07:32:57;;;;;;;20.73;5.32;;;14.50;99.90;;;;;;5064635;28;20040;-60
2023/07/03 07:35:22;;;;;;;;;;;14.40;99.90;;;;;;5061776;28;20348;-59
2023/07/03 07:37:48;;;;;;;14.95;4.18;;;14.30;99.90;;;;;;5062130;28;19916;-54
2023/07/03 07:40:13;;;;;;;;;;;14.30;99.90;;;;;;5064631;28;20192;-59
2023/07/03 07:42:39;;;;;;;20.75;4.70;;;14.40;99.90;;;;;;5063685;28;19955;-54
2023/07/03 07:45:06;;;;;;;;;;;14.20;99.90;;;;;;5075426;28;20504;-60
2023/07/03 07:47:32;;;;;;;19.60;4.75;;;14.30;99.90;;;;;;5058911;28;19938;-57
2023/07/03 07:49:58;;;;;;;20.75;4.05;;;14.30;99.90;;;;;;5062240;28;20044;-60
2023/07/03 07:52:24;;;;;;;22.95;5.03;;;14.40;99.90;;;;;;5061478;28;20041;-55
2023/07/03 07:54:56;;;;;;;23.67;5.00;;;14.40;99.90;;;;;;5064250;28;20141;-53
2023/07/03 07:57:23;;;;;;;25.75;4.85;;;14.40;99.90;;;;;;5061157;28;20058;-56
2023/07/03 07:59:49;;;;;;;20.40;4.47;;;14.40;99.90;;;;;;5063987;28;20044;-57
2023/07/03 08:02:14;;;;;;;;;;;14.60;99.90;;;;;;5065801;28;20243;-61
2023/07/03 08:04:40;;;;;;;20.15;4.35;;;14.90;99.90;;;;;;5058353;28;19916;-61
2023/07/03 08:07:05;;;;;;;22.35;4.88;;;15.00;99.90;;;;;;5063071;28;20092;-60
2023/07/03 08:09:31;;;;;;;;;;;15.40;99.90;;;;;;5060337;28;20044;-59
2023/07/03 08:11:57;;;;;;;15.88;4.20;;;15.40;99.90;;;;;;5070223;28;20105;-59
2023/07/03 08:14:22;;;;;;;;;;;15.80;99.90;;;;;;5060689;28;20041;-62
2023/07/03 08:16:48;;;;;;;14.90;4.97;;;16.10;99.90;;;;;;5070735;28;19924;-62
2023/07/03 08:19:14;;;;;;;;;;;16.20;99.90;;;;;;5054935;28;20036;-60
2023/07/03 08:21:39;;;;;;;17.13;4.25;;;15.90;99.90;;;;;;5058792;28;19920;-57
2023/07/03 08:24:05;;;;;;;;;;;15.80;99.90;;;;;;5064662;28;20052;-61
2023/07/03 08:26:31;;;;;;;20.83;4.18;;;16.40;99.30;;;;;;5071029;28;19967;-60
2023/07/03 08:28:57;;;;;;;;;;;16.80;98.50;;;;;;5059575;28;20157;-64
2023/07/03 08:31:23;;;;;;;12.77;3.83;;;16.60;98.60;;;;;;5055869;28;20439;-59
2023/07/03 08:33:49;;;;;;;12.80;3.30;;;16.20;98.10;;;;;;5061141;28;20500;-62
2023/07/03 08:36:14;;;;;;;;;;;15.90;99.70;;;;;;5063420;28;20039;-59
2023/07/03 08:38:40;;;;;;;19.60;3.92;;;15.90;99.00;;;;;;5062430;28;20647;-51
2023/07/03 08:41:09;;;;;;;;;;;15.90;99.50;;;;;;5058166;28;20052;-56
2023/07/03 08:43:41;;;;;;;17.73;3.72;;;16.20;99.00;;;;;;5058784;28;19924;-58
2023/07/03 08:46:11;;;;;;;17.63;3.95;;;16.40;98.10;;;;;;5078448;28;20040;-61
2023/07/03 08:48:39;;;;;;;13.82;3.53;;;16.60;97.60;;;;;;5063333;28;20032;-59
2023/07/03 08:51:09;;;;;;;14.70;3.75;;;17.20;97.00;;;;;;5061611;28;20028;-57
2023/07/03 08:53:41;;;;;;;15.18;4.13;;;17.50;95.60;;;;;;5062167;28;20462;-57
2023/07/03 08:56:36;;;;;;;14.75;3.50;;;17.70;95.70;;;;;;5066695;28;20040;-59
2023/07/03 08:59:03;;;;;;;19.25;4.35;;;18.30;94.40;;;;;;5047821;28;20048;-55
2023/07/03 09:01:36;;;;;;;12.35;3.50;;;18.60;93.50;;;;;;5060080;28;20770;-55
2023/07/03 09:04:38;;;;;;;12.85;4.25;;;19.00;93.10;;;;;;5050827;28;20115;-62
2023/07/03 09:07:37;;;;;;;12.60;3.50;;;18.80;93.40;;;;;;5059253;28;20487;-59
2023/07/03 09:10:17;;;;;;;15.07;3.95;;;18.30;94.90;;;;;;5065244;28;20044;-60
2023/07/03 09:12:54;;;;;;;11.75;3.53;;;17.60;93.70;;;;;;5065907;28;20107;-59
2023/07/03 09:15:29;;;;;;;12.80;3.40;;;17.40;95.30;;;;;;5060639;28;20032;-62
2023/07/03 09:17:58;;;;;;;15.57;3.85;;;17.40;95.20;;;;;;5055334;28;20043;-59
2023/07/03 09:20:26;;;;;;;12.63;3.30;;;17.10;95.20;;;;;;5062930;28;20075;-59
2023/07/03 09:22:57;;;;;;;11.85;2.83;;;17.20;94.70;;;;;;5062783;28;20041;-57
2023/07/03 09:25:30;;;;;;;8.82;2.90;;;17.50;94.10;;;;;;5064248;28;20051;-60
2023/07/03 09:27:59;;;;;;;10.82;3.08;;;17.50;94.80;;;;;;5066069;28;20126;-58
2023/07/03 09:30:24;;;;;;;16.92;3.88;;;17.50;93.50;;;;;;5057269;28;20040;-56
2023/07/03 09:32:50;;;;;;;;;;;17.30;93.90;;;;;;5061431;28;20125;-60
2023/07/03 09:35:19;;;;;;;14.20;3.58;;;17.10;94.40;;;;;;5063900;28;20817;-54
2023/07/03 09:37:57;;;;;;;15.60;3.60;;;16.70;94.00;;;;;;5061284;28;20056;-59
2023/07/03 09:40:37;;;;;;;15.82;3.67;;;16.30;94.50;;;;;;5062638;28;20115;-59
2023/07/03 09:43:11;;;;;;;17.33;3.40;;;16.00;95.20;;;;;;5051562;28;20420;-57
2023/07/03 09:45:38;;;;;;;12.05;2.92;;;16.00;95.80;;;;;;5069549;28;20496;-58
2023/07/03 09:48:25;;;;;;;9.07;3.58;;;16.10;96.40;;;;;;5063595;28;20040;-58
2023/07/03 09:50:51;;;;;;;10.90;4.18;;;16.40;95.60;;;;;;5067117;28;20453;-59
2023/07/03 09:53:21;;;;;;;13.52;3.28;;;16.80;96.30;;;;;;5056332;28;20048;-56
2023/07/03 09:55:55;;;;;;;14.40;3.85;;;17.10;95.90;;;;;;5048588;28;20401;-56
2023/07/03 09:58:24;;;;;;;9.85;3.15;;;16.90;94.10;;;;;;5049471;28;20029;-60
2023/07/03 10:00:54;;;;;;;12.02;3.22;;;16.70;94.90;;;;;;5062538;28;20071;-61
2023/07/03 10:03:31;;;;;;;15.93;3.75;;;16.50;94.10;;;;;;5061163;28;20055;-58
2023/07/03 10:06:11;;;;;;;13.60;3.63;;;16.30;94.80;;;;;;5056039;28;20049;-61
2023/07/03 10:08:41;;;;;;;16.35;3.70;;;16.10;95.60;;;;;;5054604;28;20128;-59
2023/07/03 10:11:08;;;;;;;16.13;3.65;;;16.10;95.50;;;;;;5068946;28;20496;-54
2023/07/03 10:13:42;;;;;;;16.50;4.13;;;16.10;95.70;;;;;;5063383;28;20049;-56
2023/07/03 10:16:10;;;;;;;9.68;3.13;;;16.20;95.80;;;;;;5062487;28;20416;-51
2023/07/03 10:18:39;;;;;;;12.13;3.90;;;16.20;95.50;;;;;;5059520;28;20045;-58
2023/07/03 10:21:10;;;;;;;18.40;4.28;;;16.50;95.70;;;;;;5054588;28;20090;-58
2023/07/03 10:23:39;;;;;;;10.35;3.20;;;16.60;95.50;;;;;;5059188;28;20105;-60
2023/07/03 10:26:10;;;;;;;11.52;2.92;;;16.70;95.70;;;;;;5062260;28;20044;-57
2023/07/03 10:28:51;;;;;;;17.75;3.60;;;16.70;95.10;;;;;;5062685;28;20044;-55
2023/07/03 10:31:27;;;;;;;14.48;3.63;;;16.60;95.20;;;;;;5061495;28;20036;-59
2023/07/03 10:33:58;;;;;;;13.88;3.45;;;16.50;95.10;;;;;;5051872;28;20152;-60
2023/07/03 10:36:26;;;;;;;10.38;3.28;;;16.50;95.80;;;;;;5053327;28;20139;-59
2023/07/03 10:38:55;;;;;;;18.65;4.03;;;16.40;95.40;;;;;;5060846;28;20044;-56
2023/07/03 10:41:26;;;;;;;14.88;3.22;;;16.40;94.90;;;;;;5067769;28;20143;-58
2023/07/03 10:44:08;;;;;;;12.73;3.67;;;16.40;95.80;;;;;;5060437;28;20527;-59
2023/07/03 10:47:12;;;;;;;10.07;3.42;;;16.30;94.70;;;;;;5057619;28;20072;-61
2023/07/03 10:49:39;;;;;;;13.90;3.67;;;16.30;95.60;;;;;;5056797;28;20376;-55
2023/07/03 10:52:05;;;;;;;14.80;3.97;;;16.30;95.60;;;;;;5060800;28;20052;-56
2023/07/03 10:54:42;;;;;;;15.23;3.25;;;16.30;95.60;;;;;;5061160;28;20041;-55
2023/07/03 10:57:11;;;;;;;12.73;3.50;;;16.20;96.20;;;;;;5067115;28;20105;-55
2023/07/03 10:59:43;;;;;;;11.88;3.58;;;16.10;96.50;;;;;;5061223;28;20083;-60
2023/07/03 11:02:22;;;;;;;8.82;3.28;;;16.00;97.00;;;;;;5056169;28;20071;-58
2023/07/03 11:05:13;;;;;;;12.48;3.50;;;16.10;96.70;;;;;;5053079;28;20103;-53
2023/07/03 11:07:47;;;;;;;14.60;3.10;;;16.40;96.40;;;;;;5063998;28;20635;-56
2023/07/03 11:10:32;;;;;;;11.75;4.15;;;16.40;96.50;;;;;;5050610;28;20036;-53
2023/07/03 11:13:15;;;;;;;16.63;4.18;;;16.30;96.20;;;;;;5059360;28;20037;-59
2023/07/03 11:16:11;;;;;;;14.68;4.15;;;16.40;96.50;;;;;;5066185;28;20033;-59
2023/07/03 11:19:16;;;;;;;13.77;3.25;;;16.30;96.40;;;;;;5059096;28;20124;-59
2023/07/03 11:21:50;;;;;;;20.63;3.75;;;16.40;96.40;;;;;;5062279;28;20043;-58
2023/07/03 11:24:22;;;;;;;12.85;3.78;;;16.50;96.30;;;;;;5059971;28;20216;-59
2023/07/03 11:27:01;;;;;;;14.88;4.13;;;16.50;96.10;;;;;;5060231;28;20106;-58
2023/07/03 11:29:28;;;;;;;14.40;3.58;;;16.50;96.40;;;;;;5053393;28;20048;-56
2023/07/03 11:31:54;;;;;;;8.30;3.00;;;16.60;95.60;;;;;;5053678;28;20040;-59
2023/07/03 11:34:20;;;;;;;11.70;4.25;;;16.80;95.10;;;;;;5055744;28;20041;-59
2023/07/03 11:36:54;;;;;;;15.65;3.85;;;17.00;94.90;;;;;;5056567;28;20385;-55
2023/07/03 11:39:24;;;;;;;12.45;3.50;;;17.40;94.50;;;;;;5054755;28;20198;-57
2023/07/03 11:41:52;;;;;;;12.40;3.45;;;17.40;93.60;;;;;;5057922;28;20040;-54
2023/07/03 11:44:27;;;;;;;13.95;3.08;;;17.40;94.40;;;;;;5054499;28;20041;-53
2023/07/03 11:46:55;;;;;;;14.18;4.47;;;17.50;94.80;;;;;;5065338;28;20043;-58
2023/07/03 11:49:26;;;;;;;19.50;4.57;;;17.40;94.00;;;;;;5059381;28;20036;-58
2023/07/03 11:51:57;;;;;;;11.77;3.70;;;17.20;94.20;;;;;;5052346;28;20056;-57
2023/07/03 11:54:27;;;;;;;10.35;3.30;;;17.20;95.30;;;;;;5057602;28;20131;-61
2023/07/03 11:57:01;;;;;;;14.38;3.88;;;17.20;95.20;;;;;;5052078;28;20036;-56
2023/07/03 11:59:31;;;;;;;15.57;3.60;;;17.10;94.70;;;;;;5051172;28;20169;-59
2023/07/03 12:02:14;;;;;;;14.23;3.17;;;17.00;95.40;;;;;;5054607;28;20170;-62
2023/07/03 12:04:43;;;;;;;14.57;3.72;;;16.90;95.40;;;;;;5049127;28;20048;-54
2023/07/03 12:07:10;;;;;;;14.02;3.00;;;16.80;95.80;;;;;;5056039;28;20036;-58
2023/07/03 12:09:36;;;;;;;18.42;4.63;;;16.80;95.40;;;;;;5060318;28;20110;-59
2023/07/03 12:12:06;;;;;;;;;;;16.70;95.20;;;;;;5058213;28;20045;-56
2023/07/03 12:14:52;;;;;;;11.48;3.08;;;16.60;95.30;;;;;;5067522;28;20308;-56
2023/07/03 12:17:31;;;;;;;14.15;3.33;;;16.40;95.30;;;;;;5054713;28;20048;-58
2023/07/03 12:20:20;;;;;;;13.07;3.15;;;16.40;94.90;;;;;;5070654;28;20055;-57
2023/07/03 12:22:52;;;;;;;13.57;3.47;;;16.30;95.10;;;;;;5059714;28;20041;-58
2023/07/03 12:25:27;;;;;;;12.05;3.05;;;16.20;94.80;;;;;;5059110;28;20039;-57
2023/07/03 12:27:55;;;;;;;12.40;3.70;;;16.20;95.50;;;;;;5059947;28;20503;-59
2023/07/03 12:30:23;;;;;;;14.98;3.10;;;16.20;95.40;;;;;;5062023;28;20168;-57
2023/07/03 12:32:50;;;;;;;13.95;3.45;;;16.20;95.30;;;;;;5057000;28;20079;-61
2023/07/03 12:35:26;;;;;;;13.63;3.05;;;16.30;95.70;;;;;;5059053;28;20052;-60
2023/07/03 12:37:55;;;;;;;17.40;3.42;;;16.30;95.20;;;;;;5063082;28;20050;-59
2023/07/03 12:40:23;;;;;;;9.48;3.15;;;16.50;95.60;;;;;;5069298;28;20040;-55
2023/07/03 12:42:52;;;;;;;16.65;3.20;;;16.70;95.40;;;;;;5062862;28;20346;-56
2023/07/03 12:45:32;;;;;;;7.25;2.67;;;16.80;96.60;;;;;;5064221;28;20476;-60
2023/07/03 12:48:16;;;;;;;12.88;3.25;;;17.10;95.30;;;;;;5062195;28;20409;-59
2023/07/03 12:50:47;;;;;;;12.75;3.55;;;17.10;94.60;;;;;;5064626;28;20044;-55
2023/07/03 12:53:13;;;;;;;15.13;3.13;;;17.10;94.60;;;;;;5063524;28;21113;-56
2023/07/03 12:55:40;;;;;;;;;;;17.10;93.80;;;;;;5061634;28;20155;-55
2023/07/03 12:58:06;;;;;;;;;;;17.10;94.70;;;;;;5058235;28;19982;-58
2023/07/03 13:00:34;;;;;;;13.38;3.72;;;17.00;94.40;;;;;;5064210;28;19919;-54
2023/07/03 13:03:02;;;;;;;10.68;2.80;;;17.00;94.50;;;;;;5060555;28;20044;-58
2023/07/03 13:05:32;;;;;;;9.32;2.88;;;17.10;95.40;;;;;;5064942;28;20109;-55
2023/07/03 13:07:58;;;;;;;9.20;3.08;;;17.20;95.20;;;;;;5062811;28;20559;-60